createdAt,value
2019-05-06T00:00:34.166Z,-0.9876
2019-05-06T00:02:54.469Z,-1.0571
2019-05-06T00:05:14.387Z,-1.0304
2019-05-06T00:07:34.034Z,-0.8328
2019-05-06T00:09:53.866Z,-0.7046
2019-05-06T00:12:14.367Z,-0.7607
2019-05-06T00:14:33.956Z,-0.8034
2019-05-06T00:16:54.581Z,-0.8461
2019-05-06T00:19:13.965Z,-0.9022
2019-05-06T00:21:32.434Z,-0.8755
2019-05-06T00:23:51.581Z,-0.5791
2019-05-06T00:26:10.718Z,-0.5657
2019-05-06T00:28:29.127Z,-0.5657
2019-05-06T00:30:48.368Z,-0.6352
2019-05-06T00:33:08.547Z,-0.6352
2019-05-06T00:35:27.792Z,-0.6352
2019-05-06T00:37:46.952Z,-0.6352
2019-05-06T00:40:06.395Z,-0.5924
2019-05-06T00:42:25.604Z,-0.4936
2019-05-06T00:44:44.919Z,-0.4803
2019-05-06T00:47:04.410Z,-0.4936
2019-05-06T00:49:23.915Z,-0.4349
2019-05-06T00:51:43.995Z,-0.4643
2019-05-06T00:54:04.040Z,-0.3655
2019-05-06T00:56:24.336Z,-0.3788
2019-05-06T00:58:43.659Z,-0.4082
2019-05-06T01:01:04.579Z,-0.4643
2019-05-06T01:03:24.107Z,-0.4803
2019-05-06T01:05:44.371Z,-0.5791
2019-05-06T01:08:04.075Z,-0.3227
2019-05-06T01:10:23.829Z,-0.5924
2019-05-06T01:12:43.508Z,-0.6912
2019-05-06T01:15:03.830Z,-0.7767
2019-05-06T01:17:24.355Z,-0.9583
2019-05-06T01:19:45.708Z,-1.0010
2019-05-06T01:22:05.375Z,-1.0731
2019-05-06T01:24:24.103Z,-1.0010
2019-05-06T01:26:44.336Z,-0.8755
2019-05-06T01:29:03.981Z,-0.8034
2019-05-06T01:31:24.713Z,-0.9022
2019-05-06T01:33:45.505Z,-1.0010
2019-05-06T01:36:04.554Z,-0.9449
2019-05-06T01:38:24.215Z,-0.9449
2019-05-06T01:40:44.049Z,-1.0437
2019-05-06T01:43:03.619Z,-0.9583
2019-05-06T01:45:23.665Z,-0.8328
2019-05-06T01:47:43.792Z,-0.7767
2019-05-06T01:50:04.480Z,-0.8194
2019-05-06T01:52:24.165Z,-0.7607
2019-05-06T01:54:43.475Z,-0.8034
2019-05-06T01:57:04.426Z,-0.9022
2019-05-06T01:59:24.620Z,-0.7900
2019-05-06T02:01:57.015Z,-0.8595
2019-05-06T02:04:07.386Z,-0.8194
2019-05-06T02:06:26.708Z,-1.0304
2019-05-06T02:08:45.471Z,-1.0143
2019-05-06T02:11:04.840Z,-1.0571
2019-05-06T02:13:24.371Z,-1.0731
2019-05-06T02:15:44.938Z,-1.1852
2019-05-06T02:18:04.346Z,-1.1852
2019-05-06T02:20:24.606Z,-1.2573
2019-05-06T02:22:44.267Z,-1.2440
2019-05-06T02:25:04.444Z,-1.1292
2019-05-06T02:27:24.775Z,-1.1719
2019-05-06T02:29:44.302Z,-1.1719
2019-05-06T02:32:17.148Z,-1.2119
2019-05-06T02:34:26.834Z,-1.1986
2019-05-06T02:36:45.891Z,-1.1131
2019-05-06T02:39:05.283Z,-1.1986
2019-05-06T02:41:24.730Z,-1.0998
2019-05-06T02:43:44.100Z,-1.2280
2019-05-06T02:46:04.204Z,-1.1559
2019-05-06T02:48:23.617Z,-1.0864
2019-05-06T02:50:42.786Z,-1.1425
2019-05-06T02:53:02.657Z,-1.0304
2019-05-06T02:55:23.573Z,-1.0998
2019-05-06T02:57:43.910Z,-1.2867
2019-05-06T03:00:05.116Z,-1.1559
2019-05-06T03:02:37.977Z,-1.0571
2019-05-06T03:04:48.549Z,-1.3695
2019-05-06T03:07:07.666Z,-1.1559
2019-05-06T03:09:26.461Z,-1.2119
2019-05-06T03:11:45.581Z,-1.5110
2019-05-06T03:14:04.385Z,-1.6953
2019-05-06T03:16:23.951Z,-1.8208
2019-05-06T03:18:43.672Z,-1.9623
2019-05-06T03:21:03.815Z,-2.1305
2019-05-06T03:23:23.921Z,-2.2053
2019-05-06T03:25:43.997Z,-2.2480
2019-05-06T03:28:04.131Z,-2.3468
2019-05-06T03:30:25.467Z,-2.6406
2019-05-06T03:33:20.334Z,-2.4029
2019-05-06T03:35:27.486Z,-2.4430
2019-05-06T03:37:33.661Z,-2.4296
2019-05-06T03:39:52.886Z,-2.3308
2019-05-06T03:42:15.934Z,-2.1920
2019-05-06T03:44:36.204Z,-2.0611
2019-05-06T03:46:55.230Z,-1.8502
2019-05-06T03:49:14.903Z,-1.9917
2019-05-06T03:51:34.612Z,-1.8929
2019-05-06T03:53:56.813Z,-1.9196
2019-05-06T03:56:19.659Z,-1.7220
2019-05-06T03:58:43.286Z,-1.6392
2019-05-06T04:01:03.730Z,-1.5537
2019-05-06T04:03:42.011Z,-1.5831
2019-05-06T04:05:47.474Z,-1.6525
2019-05-06T04:08:05.881Z,-1.3294
2019-05-06T04:10:25.344Z,-1.2707
2019-05-06T04:12:44.823Z,-1.0998
2019-05-06T04:15:04.452Z,-0.9182
2019-05-06T04:17:23.801Z,-1.0437
2019-05-06T04:19:43.676Z,-0.8888
2019-05-06T04:22:03.679Z,-0.7473
2019-05-06T04:24:23.258Z,-0.6912
2019-05-06T04:26:46.045Z,-0.6645
2019-05-06T04:29:06.240Z,-0.4803
2019-05-06T04:31:25.375Z,-0.4482
2019-05-06T04:34:03.536Z,-0.3094
2019-05-06T04:36:09.277Z,-0.3494
2019-05-06T04:38:27.570Z,-0.2373
2019-05-06T04:40:46.931Z,-0.2373
2019-05-06T04:43:06.540Z,-0.1812
2019-05-06T04:45:25.814Z,-0.0130
2019-05-06T04:47:44.265Z,0.0992
2019-05-06T04:50:04.846Z,0.1846
2019-05-06T04:52:26.126Z,0.2701
2019-05-06T04:54:45.466Z,0.3716
2019-05-06T04:57:05.312Z,0.3983
2019-05-06T04:59:24.382Z,0.5398
2019-05-06T05:01:45.513Z,1.1059
2019-05-06T05:04:22.269Z,0.8629
2019-05-06T05:06:29.644Z,0.9483
2019-05-06T05:08:48.729Z,1.0044
2019-05-06T05:11:08.011Z,0.9777
2019-05-06T05:13:27.102Z,0.8789
2019-05-06T05:15:46.610Z,0.9216
2019-05-06T05:18:05.050Z,0.8629
2019-05-06T05:20:37.074Z,0.6252
2019-05-06T05:22:48.686Z,0.8068
2019-05-06T05:25:07.817Z,0.6252
2019-05-06T05:27:26.341Z,0.5959
2019-05-06T05:29:44.758Z,0.7080
2019-05-06T05:32:03.776Z,0.7507
2019-05-06T05:34:36.402Z,0.7801
2019-05-06T05:36:46.355Z,1.2047
2019-05-06T05:39:05.704Z,1.1780
2019-05-06T05:41:24.774Z,1.7975
2019-05-06T05:43:43.175Z,1.9818
2019-05-06T05:46:02.913Z,2.1527
2019-05-06T05:48:23.351Z,2.2648
2019-05-06T05:50:42.558Z,2.5185
2019-05-06T05:53:02.499Z,2.4331
2019-05-06T05:55:22.193Z,2.1927
2019-05-06T05:57:43.103Z,2.5319
2019-05-06T06:00:03.922Z,2.4758
2019-05-06T06:02:23.237Z,2.6307
2019-05-06T06:04:54.210Z,2.9004
2019-05-06T06:07:05.679Z,3.1540
2019-05-06T06:09:25.384Z,3.3383
2019-05-06T06:11:43.990Z,3.5946
2019-05-06T06:14:03.149Z,3.4665
2019-05-06T06:16:23.272Z,4.2008
2019-05-06T06:18:43.102Z,4.0593
2019-05-06T06:21:17.368Z,5.0072
2019-05-06T06:23:26.521Z,5.0366
2019-05-06T06:25:45.500Z,4.8791
2019-05-06T06:28:04.895Z,4.9084
2019-05-06T06:30:24.071Z,5.1488
2019-05-06T06:32:43.141Z,4.8657
2019-05-06T06:35:10.799Z,5.0072
2019-05-06T06:37:28.894Z,5.1221
2019-05-06T06:39:48.661Z,6.1528
2019-05-06T06:42:06.129Z,5.5173
2019-05-06T06:44:26.989Z,5.7282
2019-05-06T06:46:46.030Z,7.8485
2019-05-06T06:49:07.647Z,8.7110
2019-05-06T06:51:26.666Z,9.5308
2019-05-06T06:53:47.769Z,9.2771
2019-05-06T06:56:12.503Z,9.4053
2019-05-06T06:58:33.299Z,9.4053
2019-05-06T07:00:53.347Z,10.2384
2019-05-06T07:03:12.285Z,10.9754
2019-05-06T07:05:33.069Z,10.4387
2019-05-06T07:07:53.125Z,11.1170
2019-05-06T07:10:12.638Z,11.1170
2019-05-06T07:12:32.830Z,11.7418
2019-05-06T07:14:52.474Z,10.1957
2019-05-06T07:17:13.183Z,9.4053
2019-05-06T07:19:32.772Z,11.0769
2019-05-06T07:21:52.370Z,9.3065
2019-05-06T07:24:13.045Z,9.6296
2019-05-06T07:26:31.831Z,8.9834
2019-05-06T07:28:52.698Z,9.8032
2019-05-06T07:31:21.802Z,9.3626
2019-05-06T07:33:36.815Z,9.4186
2019-05-06T07:35:56.458Z,10.0008
2019-05-06T07:40:45.015Z,12.2892
2019-05-06T07:45:32.879Z,10.6230
2019-05-06T07:47:53.194Z,11.6964
2019-05-06T07:50:13.818Z,11.2024
2019-05-06T07:52:32.851Z,10.3239
2019-05-06T07:54:53.609Z,11.4134
2019-05-06T07:57:13.032Z,11.2585
2019-05-06T07:59:33.387Z,10.1263
2019-05-06T08:01:54.083Z,10.2384
2019-05-06T08:04:13.498Z,12.1210
2019-05-06T08:06:32.617Z,12.4334
2019-05-06T08:08:53.766Z,12.5189
2019-05-06T08:11:13.291Z,9.9580
2019-05-06T08:13:32.642Z,10.9033
2019-05-06T08:15:53.042Z,10.8606
2019-05-06T08:18:12.869Z,11.7685
2019-05-06T08:20:34.736Z,11.6670
2019-05-06T08:22:56.294Z,12.5189
2019-05-06T08:25:16.297Z,11.3573
2019-05-06T08:27:37.361Z,11.3867
2019-05-06T08:29:56.743Z,11.1597
2019-05-06T08:34:47.264Z,11.1463
2019-05-06T08:37:07.273Z,12.0943
2019-05-06T08:39:26.995Z,12.3320
2019-05-06T08:44:25.027Z,10.4681
2019-05-06T08:46:43.717Z,9.8592
2019-05-06T08:49:05.414Z,9.4614
2019-05-06T08:51:24.502Z,8.9380
2019-05-06T08:53:46.346Z,9.4480
2019-05-06T08:56:06.069Z,9.5174
2019-05-06T08:58:26.351Z,13.2399
2019-05-06T09:03:14.354Z,11.1597
2019-05-06T09:05:35.045Z,11.1330
2019-05-06T09:07:54.587Z,12.5322
2019-05-06T09:10:14.127Z,13.1544
2019-05-06T09:12:34.884Z,12.8981
2019-05-06T09:14:53.435Z,11.9955
2019-05-06T09:17:12.086Z,11.1463
2019-05-06T09:19:33.187Z,9.7738
2019-05-06T09:21:57.290Z,9.0661
2019-05-06T09:26:52.269Z,9.0955
2019-05-06T09:32:05.032Z,8.9673
2019-05-06T09:34:28.268Z,9.0528
2019-05-06T09:36:52.684Z,9.4480
2019-05-06T09:39:19.284Z,9.7471
2019-05-06T09:41:37.467Z,9.9847
2019-05-06T09:43:56.917Z,9.4907
2019-05-06T09:46:15.965Z,10.0141
2019-05-06T09:48:34.433Z,9.5735
2019-05-06T09:50:53.719Z,9.4614
2019-05-06T09:53:13.763Z,10.4120
2019-05-06T09:58:12.433Z,11.4294
2019-05-06T10:00:32.975Z,11.7098
2019-05-06T10:05:28.576Z,11.7552
2019-05-06T10:07:52.265Z,11.2024
2019-05-06T10:10:11.259Z,11.4294
2019-05-06T10:12:29.696Z,12.3053
2019-05-06T10:17:31.088Z,12.0943
2019-05-06T10:19:50.492Z,11.7231
2019-05-06T10:24:43.177Z,10.9888
2019-05-06T10:27:02.754Z,11.9661
2019-05-06T10:29:27.709Z,11.8967
2019-05-06T10:31:45.389Z,11.3573
2019-05-06T10:34:03.187Z,12.0943
2019-05-06T10:39:02.445Z,11.7979
2019-05-06T10:41:22.413Z,12.3613
2019-05-06T10:43:43.376Z,12.3747
2019-05-06T10:48:42.448Z,11.2879
2019-05-06T10:51:03.379Z,11.3867
2019-05-06T10:53:24.813Z,12.0783
2019-05-06T10:55:43.343Z,12.5456
2019-05-06T11:00:36.294Z,13.1411
2019-05-06T11:05:32.558Z,13.8487
2019-05-06T11:07:52.518Z,13.8060
2019-05-06T11:10:23.890Z,12.0783
2019-05-06T11:12:38.653Z,13.2960
2019-05-06T11:17:34.100Z,12.2892
2019-05-06T11:19:56.361Z,11.7685
2019-05-06T11:22:21.208Z,11.1757
2019-05-06T11:27:28.070Z,12.2332
2019-05-06T11:29:37.918Z,11.7845
2019-05-06T11:31:56.584Z,12.0943
2019-05-06T11:36:45.400Z,11.1170
2019-05-06T11:39:04.363Z,11.2318
2019-05-06T11:41:23.363Z,11.0475
2019-05-06T11:43:43.083Z,10.0996
2019-05-06T11:46:02.595Z,10.2117
2019-05-06T11:50:55.510Z,10.6230
2019-05-06T11:53:13.469Z,10.2117
2019-05-06T11:55:38.050Z,10.6230
2019-05-06T11:57:54.381Z,11.6110
2019-05-06T12:00:12.897Z,12.0649
2019-05-06T12:02:33.021Z,12.0089
2019-05-06T12:04:52.838Z,12.4201
2019-05-06T12:07:15.460Z,11.7979
2019-05-06T12:09:34.604Z,13.1971
2019-05-06T12:11:53.094Z,13.0262
2019-05-06T12:14:12.389Z,14.3000
2019-05-06T12:16:33.169Z,13.7606
2019-05-06T12:18:55.709Z,13.2399
2019-05-06T12:21:19.135Z,12.5883
2019-05-06T12:23:39.005Z,12.7726
2019-05-06T12:25:57.499Z,12.2625
2019-05-06T12:28:21.269Z,12.6310
2019-05-06T12:30:42.709Z,12.4762
2019-05-06T12:33:03.135Z,12.4495
2019-05-06T12:35:22.183Z,12.4201
2019-05-06T12:40:37.239Z,10.9594
2019-05-06T12:42:58.908Z,10.8473
2019-05-06T12:45:17.388Z,10.3693
2019-05-06T13:12:48.929Z,10.1957
2019-05-06T13:15:08.144Z,9.8592
2019-05-06T13:28:57.663Z,10.1823
2019-05-06T13:38:08.477Z,9.9153
2019-05-06T13:47:19.134Z,10.4253
2019-05-06T13:49:37.625Z,10.2678
2019-05-06T14:07:57.798Z,10.2811
2019-05-06T14:44:39.139Z,12.8981
2019-05-06T14:46:57.622Z,12.3053
2019-05-06T15:21:36.184Z,10.8045
2019-05-06T15:39:49.409Z,10.1823
2019-05-06T15:45:57.615Z,9.8859
2019-05-06T15:54:08.936Z,9.0234
2019-05-06T16:00:38.107Z,9.1089
2019-05-06T16:08:48.578Z,9.1783
2019-05-06T16:21:07.430Z,8.9673
2019-05-06T16:33:27.601Z,9.1943
2019-05-06T16:49:47.799Z,9.0101
2019-05-06T16:57:58.382Z,8.7270
2019-05-06T17:02:18.786Z,8.4012
2019-05-06T18:30:15.903Z,5.5440
2019-05-06T18:51:50.978Z,4.9779
2019-05-06T19:04:08.095Z,4.8230
2019-05-06T19:24:39.135Z,4.6387
2019-05-06T19:41:28.256Z,4.2729
2019-05-06T19:51:48.874Z,3.7068
2019-05-06T20:02:09.562Z,3.4077
2019-05-06T20:23:48.593Z,3.0552
2019-05-06T20:44:29.257Z,2.7882
2019-05-06T21:00:52.786Z,2.3503
2019-05-06T21:17:29.060Z,1.1059
2019-05-06T21:19:33.124Z,1.0472
2019-05-06T21:24:15.331Z,0.7801
2019-05-06T21:41:25.536Z,2.5185
2019-05-06T21:55:45.859Z,2.5452
2019-05-06T22:12:05.777Z,2.6440
2019-05-06T22:26:35.026Z,1.3462
2019-05-06T22:42:55.831Z,1.1059
2019-05-06T23:07:45.012Z,1.3462
2019-05-06T23:20:05.141Z,-1.0571
2019-05-06T23:28:16.362Z,-1.4122
